createdAt,value
2022-08-08T00:02:03.734Z,44.59
2022-08-08T00:04:49.106Z,44.24
2022-08-08T00:07:28.689Z,44.81
2022-08-08T00:10:11.522Z,45.57
2022-08-08T00:12:56.674Z,45.26
2022-08-08T00:15:57.301Z,44.85
2022-08-08T00:18:18.416Z,44.83
2022-08-08T00:20:51.765Z,44.82
2022-08-08T00:23:47.662Z,45.63
2022-08-08T00:26:29.455Z,45.48
2022-08-08T00:29:17.389Z,44.83
2022-08-08T00:32:21.263Z,44.96
2022-08-08T00:35:21.055Z,45.37
2022-08-08T00:38:02.225Z,45.39
2022-08-08T00:41:12.382Z,45.30
2022-08-08T00:43:41.655Z,45.80
2022-08-08T00:46:57.314Z,45.72
2022-08-08T00:49:59.249Z,45.26
2022-08-08T00:52:51.368Z,45.86
2022-08-08T00:55:53.775Z,46.03
2022-08-08T00:59:02.800Z,46.08
2022-08-08T01:01:50.360Z,46.43
2022-08-08T01:04:48.867Z,46.27
2022-08-08T01:07:55.888Z,45.91
2022-08-08T01:10:31.170Z,46.64
2022-08-08T01:13:43.983Z,46.41
2022-08-08T01:16:51.240Z,46.37
2022-08-08T01:19:51.951Z,46.44
2022-08-08T01:22:43.464Z,46.43
2022-08-08T01:25:48.787Z,46.74
2022-08-08T01:28:53.984Z,47.07
2022-08-08T01:32:23.559Z,46.60
2022-08-08T01:35:30.474Z,46.70
2022-08-08T01:38:30.184Z,47.31
2022-08-08T01:41:09.881Z,48.09
2022-08-08T01:43:50.586Z,47.73
2022-08-08T01:46:47.321Z,47.27
2022-08-08T01:49:37.616Z,47.30
2022-08-08T01:54:03.967Z,49.13
2022-08-08T01:56:29.489Z,49.89
2022-08-08T01:58:57.902Z,47.89
2022-08-08T02:02:08.204Z,47.38
2022-08-08T02:05:01.654Z,46.50
2022-08-08T02:07:54.945Z,46.62
2022-08-08T02:10:45.255Z,46.90
2022-08-08T02:13:53.826Z,46.68
2022-08-08T02:16:21.082Z,46.99
2022-08-08T02:18:59.565Z,47.44
2022-08-08T02:21:56.401Z,47.03
2022-08-08T02:24:33.361Z,47.47
2022-08-08T02:27:42.106Z,47.46
2022-08-08T02:30:37.505Z,47.27
2022-08-08T02:34:00.539Z,47.35
2022-08-08T02:36:28.650Z,46.67
2022-08-08T02:39:42.654Z,47.50
2022-08-08T02:42:36.232Z,47.24
2022-08-08T02:45:24.949Z,47.07
2022-08-08T02:48:16.201Z,48.85
2022-08-08T02:51:11.871Z,48.13
2022-08-08T02:54:19.375Z,47.61
2022-08-08T02:56:55.769Z,47.44
2022-08-08T02:59:58.418Z,47.44
2022-08-08T03:03:10.317Z,47.66
2022-08-08T03:05:45.308Z,47.80
2022-08-08T03:08:34.806Z,47.81
2022-08-08T03:12:02.820Z,48.36
2022-08-08T03:16:03.865Z,47.86
2022-08-08T03:18:04.558Z,48.19
2022-08-08T03:20:51.852Z,48.12
2022-08-08T03:23:56.429Z,48.04
2022-08-08T03:26:23.029Z,48.23
2022-08-08T03:28:56.258Z,48.24
2022-08-08T03:32:06.547Z,48.68
2022-08-08T03:34:29.110Z,48.49
2022-08-08T03:36:56.823Z,48.14
2022-08-08T03:39:24.138Z,48.71
2022-08-08T03:42:12.360Z,49.28
2022-08-08T03:44:40.869Z,49.49
2022-08-08T03:47:20.880Z,49.44
2022-08-08T03:49:59.805Z,49.31
2022-08-08T03:52:33.898Z,49.41
2022-08-08T03:55:10.440Z,50.22
2022-08-08T03:58:32.449Z,50.75
2022-08-08T04:00:56.918Z,50.20
2022-08-08T04:03:57.949Z,50.01
2022-08-08T04:06:22.577Z,49.42
2022-08-08T04:08:50.157Z,49.80
2022-08-08T04:11:23.583Z,50.29
2022-08-08T04:14:03.782Z,50.16
2022-08-08T04:16:42.658Z,49.76
2022-08-08T04:19:23.640Z,49.73
2022-08-08T04:21:56.428Z,50.38
2022-08-08T04:24:29.225Z,50.40
2022-08-08T04:26:59.611Z,50.78
2022-08-08T04:29:33.240Z,51.02
2022-08-08T04:32:10.431Z,51.45
2022-08-08T04:34:55.470Z,52.28
2022-08-08T04:37:32.217Z,52.45
2022-08-08T04:40:05.515Z,52.43
2022-08-08T04:42:37.435Z,51.03
2022-08-08T04:45:13.873Z,50.78
2022-08-08T04:47:43.432Z,51.24
2022-08-08T04:50:23.893Z,51.02
2022-08-08T04:53:00.746Z,50.93
2022-08-08T04:55:46.959Z,52.66
2022-08-08T04:58:17.573Z,52.53
2022-08-08T05:00:47.642Z,52.72
2022-08-08T05:03:19.114Z,51.94
2022-08-08T05:06:13.187Z,51.37
2022-08-08T05:08:43.100Z,50.98
2022-08-08T05:11:18.732Z,50.59
2022-08-08T05:13:58.201Z,51.25
2022-08-08T05:16:52.271Z,50.85
2022-08-08T05:20:09.393Z,51.28
2022-08-08T05:22:08.600Z,51.80
2022-08-08T05:24:40.276Z,51.56
2022-08-08T05:27:07.845Z,51.76
2022-08-08T05:29:37.702Z,51.85
2022-08-08T05:32:09.436Z,52.18
2022-08-08T05:34:42.042Z,51.80
2022-08-08T05:37:17.082Z,51.42
2022-08-08T05:39:52.903Z,50.84
2022-08-08T05:42:39.341Z,50.49
2022-08-08T05:45:24.812Z,50.03
2022-08-08T05:48:00.342Z,49.54
2022-08-08T05:50:33.477Z,49.63
2022-08-08T05:53:23.108Z,50.29
2022-08-08T05:56:10.973Z,50.41
2022-08-08T05:58:56.967Z,50.92
2022-08-08T06:01:55.493Z,51.21
2022-08-08T06:04:23.774Z,50.51
2022-08-08T06:07:01.711Z,51.29
2022-08-08T06:09:59.080Z,51.34
2022-08-08T06:12:30.847Z,50.54
2022-08-08T06:15:03.370Z,51.28
2022-08-08T06:18:18.670Z,51.79
2022-08-08T06:20:26.143Z,52.38
2022-08-08T06:22:56.143Z,51.63
2022-08-08T06:26:35.760Z,51.77
2022-08-08T06:28:34.458Z,51.57
2022-08-08T06:31:03.673Z,51.98
2022-08-08T06:34:26.066Z,52.07
2022-08-08T06:36:53.637Z,52.35
2022-08-08T06:39:22.404Z,52.54
2022-08-08T06:41:55.827Z,52.84
2022-08-08T06:44:27.101Z,53.58
2022-08-08T06:46:59.036Z,52.83
2022-08-08T06:49:56.161Z,53.58
2022-08-08T06:52:17.275Z,52.62
2022-08-08T06:54:44.466Z,53.23
2022-08-08T06:57:15.668Z,52.52
2022-08-08T07:00:02.580Z,53.11
2022-08-08T07:02:32.992Z,52.91
2022-08-08T07:05:07.093Z,53.46
2022-08-08T07:07:51.765Z,52.69
2022-08-08T07:10:23.573Z,52.08
2022-08-08T07:12:54.617Z,52.19
2022-08-08T07:16:04.549Z,52.51
2022-08-08T07:19:06.384Z,52.93
2022-08-08T07:21:59.188Z,52.22
2022-08-08T07:24:34.891Z,52.15
2022-08-08T07:27:06.261Z,51.83
2022-08-08T07:29:58.796Z,52.26
2022-08-08T07:32:26.473Z,51.72
2022-08-08T07:35:00.418Z,51.45
2022-08-08T07:37:42.598Z,51.08
2022-08-08T07:40:28.899Z,50.46
2022-08-08T07:42:56.796Z,50.30
2022-08-08T07:45:26.511Z,50.39
2022-08-08T07:48:02.976Z,50.58
2022-08-08T07:50:37.654Z,50.11
2022-08-08T07:53:52.369Z,49.70
2022-08-08T07:56:10.834Z,49.17
2022-08-08T07:58:45.229Z,49.42
2022-08-08T08:01:26.884Z,49.07
2022-08-08T08:04:07.846Z,48.81
2022-08-08T08:06:42.057Z,48.62
2022-08-08T08:09:19.391Z,48.54
2022-08-08T08:11:51.489Z,48.54
2022-08-08T08:14:45.546Z,47.71
2022-08-08T08:17:18.365Z,47.80
2022-08-08T08:19:50.647Z,47.80
2022-08-08T08:22:31.326Z,46.81
2022-08-08T08:25:07.403Z,47.50
2022-08-08T08:27:36.765Z,46.72
2022-08-08T08:30:05.277Z,46.75
2022-08-08T08:32:36.335Z,46.11
2022-08-08T08:35:09.179Z,45.97
2022-08-08T08:38:05.532Z,45.74
2022-08-08T08:40:26.201Z,44.89
2022-08-08T08:42:55.833Z,45.56
2022-08-08T08:45:26.277Z,44.62
2022-08-08T08:47:58.536Z,44.67
2022-08-08T08:50:32.515Z,43.67
2022-08-08T08:53:54.005Z,43.84
2022-08-08T08:56:01.291Z,44.22
2022-08-08T08:58:42.841Z,43.00
2022-08-08T09:01:16.461Z,42.86
2022-08-08T09:03:50.662Z,43.00
2022-08-08T09:06:40.511Z,42.24
2022-08-08T09:09:39.733Z,41.71
2022-08-08T09:12:20.058Z,40.80
2022-08-08T09:14:49.148Z,41.01
2022-08-08T09:17:23.681Z,41.46
2022-08-08T09:22:00.536Z,41.02
2022-08-08T09:22:58.941Z,41.33
2022-08-08T09:25:36.265Z,40.89
2022-08-08T09:28:35.524Z,40.66
2022-08-08T09:31:12.925Z,40.53
2022-08-08T09:34:15.160Z,40.72
2022-08-08T09:36:36.016Z,39.89
2022-08-08T09:39:15.392Z,39.47
2022-08-08T09:42:14.287Z,39.11
2022-08-08T09:45:15.310Z,39.25
2022-08-08T09:48:12.666Z,38.99
2022-08-08T09:50:36.694Z,37.96
2022-08-08T09:53:24.928Z,37.90
2022-08-08T09:56:06.679Z,38.02
2022-08-08T09:58:41.814Z,37.53
2022-08-08T10:01:14.392Z,37.37
2022-08-08T10:03:42.446Z,37.57
2022-08-08T10:06:17.717Z,37.26
2022-08-08T10:08:49.896Z,36.73
2022-08-08T10:12:27.005Z,36.35
2022-08-08T10:14:27.707Z,36.79
2022-08-08T10:16:55.774Z,36.68
2022-08-08T10:19:38.327Z,36.50
2022-08-08T10:22:22.619Z,36.22
2022-08-08T10:24:57.332Z,37.02
2022-08-08T10:27:29.803Z,36.44
2022-08-08T10:30:04.682Z,36.68
2022-08-08T10:32:34.023Z,36.42
2022-08-08T10:35:11.449Z,35.81
2022-08-08T10:37:38.938Z,35.71
2022-08-08T10:40:17.453Z,35.21
2022-08-08T10:42:49.474Z,35.52
2022-08-08T10:45:16.848Z,34.92
2022-08-08T10:47:55.500Z,35.11
2022-08-08T10:50:31.041Z,35.44
2022-08-08T10:53:12.765Z,35.19
2022-08-08T10:55:46.305Z,35.23
2022-08-08T10:58:16.057Z,34.90
2022-08-08T11:00:52.486Z,33.80
2022-08-08T11:03:37.088Z,34.36
2022-08-08T11:06:15.606Z,34.61
2022-08-08T11:08:50.121Z,34.66
2022-08-08T11:12:00.776Z,35.02
2022-08-08T11:14:12.215Z,34.89
2022-08-08T11:16:46.894Z,34.51
2022-08-08T11:19:15.549Z,34.47
2022-08-08T11:21:55.213Z,33.97
2022-08-08T11:24:26.189Z,33.39
2022-08-08T11:26:58.035Z,32.91
2022-08-08T11:29:41.918Z,32.71
2022-08-08T11:32:14.576Z,31.16
2022-08-08T11:35:08.893Z,30.80
2022-08-08T11:38:36.329Z,30.54
2022-08-08T11:40:25.842Z,30.42
2022-08-08T11:42:54.613Z,30.41
2022-08-08T11:45:22.882Z,30.59
2022-08-08T11:48:04.424Z,30.50
2022-08-08T11:50:33.977Z,30.11
2022-08-08T11:53:06.047Z,30.00
2022-08-08T11:55:36.419Z,30.40
2022-08-08T11:58:14.769Z,29.75
2022-08-08T12:00:53.722Z,29.77
2022-08-08T12:03:20.933Z,29.26
2022-08-08T12:05:48.541Z,29.38
2022-08-08T12:08:15.458Z,28.90
2022-08-08T12:10:50.030Z,28.68
2022-08-08T12:13:37.667Z,29.06
2022-08-08T12:16:15.563Z,28.67
2022-08-08T12:18:53.017Z,28.39
2022-08-08T12:21:59.151Z,28.52
2022-08-08T12:24:19.935Z,28.10
2022-08-08T12:26:52.939Z,27.99
2022-08-08T12:29:40.026Z,27.91
2022-08-08T12:32:19.636Z,28.68
2022-08-08T12:34:52.949Z,28.64
2022-08-08T12:37:40.691Z,28.27
2022-08-08T12:40:23.671Z,28.78
2022-08-08T12:42:52.437Z,27.82
2022-08-08T12:45:54.774Z,27.66
2022-08-08T12:48:37.161Z,27.97
2022-08-08T12:51:07.849Z,27.87
2022-08-08T12:53:54.442Z,28.16
2022-08-08T12:56:34.025Z,27.77
2022-08-08T12:59:01.479Z,27.76
2022-08-08T13:01:38.271Z,27.53
2022-08-08T13:04:19.293Z,27.42
2022-08-08T13:07:16.554Z,27.47
2022-08-08T13:10:04.266Z,27.32
2022-08-08T13:12:36.193Z,27.23
2022-08-08T13:15:09.790Z,27.25
2022-08-08T13:18:07.929Z,27.32
2022-08-08T13:20:27.481Z,26.91
2022-08-08T13:23:26.895Z,27.21
2022-08-08T13:25:43.591Z,27.53
2022-08-08T13:28:17.465Z,26.96
2022-08-08T13:30:44.354Z,26.89
2022-08-08T13:33:18.651Z,26.20
2022-08-08T13:35:50.660Z,26.36
2022-08-08T13:38:18.132Z,26.49
2022-08-08T13:40:45.975Z,27.03
2022-08-08T13:43:16.507Z,26.53
2022-08-08T13:45:43.886Z,27.02
2022-08-08T13:48:16.044Z,26.53
2022-08-08T13:50:49.061Z,26.98
2022-08-08T13:53:33.898Z,26.40
2022-08-08T13:56:06.978Z,25.39
2022-08-08T13:58:57.363Z,26.01
2022-08-08T14:01:52.436Z,27.04
2022-08-08T14:04:22.462Z,26.99
2022-08-08T14:06:49.746Z,27.10
2022-08-08T14:09:24.775Z,26.62
2022-08-08T14:12:00.387Z,27.24
2022-08-08T14:14:45.277Z,27.20
2022-08-08T14:17:22.455Z,27.36
2022-08-08T14:20:55.243Z,26.92
2022-08-08T14:23:06.176Z,27.05
2022-08-08T14:26:10.836Z,26.97
2022-08-08T14:28:40.085Z,27.42
2022-08-08T14:31:09.231Z,27.96
2022-08-08T14:33:37.043Z,26.96
2022-08-08T14:36:06.821Z,27.91
2022-08-08T14:38:52.084Z,27.30
2022-08-08T14:41:45.527Z,27.76
2022-08-08T14:44:13.282Z,27.62
2022-08-08T14:47:01.236Z,27.64
2022-08-08T14:49:37.767Z,27.49
2022-08-08T14:52:21.168Z,27.33
2022-08-08T14:54:49.552Z,27.44
2022-08-08T14:57:17.115Z,27.44
2022-08-08T14:59:55.838Z,27.61
2022-08-08T15:02:25.303Z,27.52
2022-08-08T15:04:52.772Z,26.94
2022-08-08T15:07:24.471Z,26.61
2022-08-08T15:10:04.422Z,26.80
2022-08-08T15:12:31.391Z,26.84
2022-08-08T15:14:58.084Z,26.66
2022-08-08T15:17:24.676Z,26.63
2022-08-08T15:19:53.612Z,26.96
2022-08-08T15:22:23.848Z,26.95
2022-08-08T15:25:00.824Z,26.69
2022-08-08T15:28:05.008Z,26.82
2022-08-08T15:30:14.546Z,26.97
2022-08-08T15:32:41.685Z,26.70
2022-08-08T15:35:10.835Z,26.48
2022-08-08T15:37:37.993Z,26.94
2022-08-08T15:40:07.417Z,26.67
2022-08-08T15:42:38.941Z,27.01
2022-08-08T15:45:06.593Z,27.07
2022-08-08T15:47:33.266Z,26.99
2022-08-08T15:50:00.753Z,26.97
2022-08-08T15:52:28.745Z,26.70
2022-08-08T15:54:55.643Z,26.76
2022-08-08T15:57:23.002Z,26.86
2022-08-08T16:00:05.501Z,26.34
2022-08-08T16:02:44.616Z,26.53
2022-08-08T16:05:21.539Z,26.36
2022-08-08T16:07:52.427Z,26.36
2022-08-08T16:13:21.333Z,26.37
2022-08-08T16:13:28.124Z,26.33
2022-08-08T16:15:58.049Z,26.62
2022-08-08T16:18:32.181Z,26.38
2022-08-08T16:21:00.978Z,25.94
2022-08-08T16:23:32.393Z,26.28
2022-08-08T16:26:04.975Z,26.27
2022-08-08T16:28:41.515Z,25.89
2022-08-08T16:31:09.256Z,26.25
2022-08-08T16:33:39.211Z,26.21
2022-08-08T16:36:09.061Z,26.48
2022-08-08T16:38:44.843Z,26.14
2022-08-08T16:41:20.085Z,26.09
2022-08-08T16:43:51.286Z,26.40
2022-08-08T16:46:36.542Z,26.60
2022-08-08T16:49:06.124Z,25.92
2022-08-08T16:54:59.971Z,26.05
2022-08-08T16:55:05.579Z,26.09
2022-08-08T16:57:23.708Z,26.04
2022-08-08T16:59:58.966Z,25.46
2022-08-08T17:02:38.765Z,25.63
2022-08-08T17:05:08.437Z,25.51
2022-08-08T17:07:37.770Z,25.67
2022-08-08T17:10:11.520Z,25.70
2022-08-08T17:12:38.691Z,25.95
2022-08-08T17:15:17.611Z,26.21
2022-08-08T17:18:03.620Z,25.91
2022-08-08T17:20:39.622Z,25.85
2022-08-08T17:23:17.994Z,25.90
2022-08-08T17:25:54.782Z,25.83
2022-08-08T17:28:34.000Z,25.56
2022-08-08T17:31:39.393Z,25.67
2022-08-08T17:34:48.426Z,25.50
2022-08-08T17:36:55.537Z,26.05
2022-08-08T17:40:05.029Z,26.13
2022-08-08T17:42:14.006Z,25.84
2022-08-08T17:44:44.417Z,26.01
2022-08-08T17:47:23.384Z,26.00
2022-08-08T17:49:52.848Z,25.84
2022-08-08T17:52:23.179Z,26.11
2022-08-08T17:54:51.996Z,25.75
2022-08-08T17:57:23.082Z,25.68
2022-08-08T17:59:49.654Z,25.88
2022-08-08T18:02:28.627Z,26.03
2022-08-08T18:05:04.645Z,25.71
2022-08-08T18:08:01.964Z,25.90
2022-08-08T18:10:19.192Z,26.09
2022-08-08T18:12:46.185Z,26.11
2022-08-08T18:15:14.225Z,25.98
2022-08-08T18:18:09.164Z,26.37
2022-08-08T18:20:43.653Z,26.56
2022-08-08T18:23:14.766Z,26.75
2022-08-08T18:25:42.107Z,26.77
2022-08-08T18:28:13.597Z,26.69
2022-08-08T18:30:42.682Z,26.98
2022-08-08T18:33:36.586Z,27.11
2022-08-08T18:36:02.591Z,27.29
2022-08-08T18:38:34.136Z,28.62
2022-08-08T18:41:01.250Z,28.20
2022-08-08T18:43:42.591Z,28.99
2022-08-08T18:46:56.601Z,29.17
2022-08-08T18:48:57.061Z,29.12
2022-08-08T18:51:48.876Z,29.87
2022-08-08T18:54:21.921Z,30.11
2022-08-08T18:56:53.583Z,30.42
2022-08-08T18:59:20.226Z,30.11
2022-08-08T19:02:25.773Z,30.46
2022-08-08T19:04:36.301Z,30.78
2022-08-08T19:07:03.498Z,30.84
2022-08-08T19:09:49.167Z,31.33
2022-08-08T19:12:18.420Z,31.90
2022-08-08T19:14:46.580Z,32.58
2022-08-08T19:17:13.433Z,32.69
2022-08-08T19:20:02.121Z,32.81
2022-08-08T19:22:29.815Z,33.19
2022-08-08T19:25:30.709Z,32.09
2022-08-08T19:27:55.807Z,32.96
2022-08-08T19:30:26.635Z,32.97
2022-08-08T19:32:58.060Z,33.07
2022-08-08T19:35:45.159Z,32.72
2022-08-08T19:38:16.581Z,32.71
2022-08-08T19:40:44.102Z,32.96
2022-08-08T19:43:11.950Z,33.39
2022-08-08T19:45:59.671Z,33.21
2022-08-08T19:48:28.694Z,32.85
2022-08-08T19:50:59.180Z,32.67
2022-08-08T19:53:52.356Z,32.73
2022-08-08T19:56:13.933Z,33.82
2022-08-08T19:58:51.540Z,33.13
2022-08-08T20:01:21.576Z,33.70
2022-08-08T20:04:00.931Z,33.95
2022-08-08T20:06:29.848Z,34.33
2022-08-08T20:08:56.819Z,34.51
2022-08-08T20:11:23.746Z,34.02
2022-08-08T20:14:12.148Z,34.17
2022-08-08T20:16:40.773Z,33.32
2022-08-08T20:19:08.992Z,33.80
2022-08-08T20:21:37.323Z,34.61
2022-08-08T20:24:06.211Z,35.21
2022-08-08T20:26:35.817Z,35.34
2022-08-08T20:29:06.493Z,35.09
2022-08-08T20:32:07.756Z,34.39
2022-08-08T20:34:30.677Z,34.88
2022-08-08T20:36:59.966Z,35.62
2022-08-08T20:39:27.002Z,35.31
2022-08-08T20:42:00.838Z,35.28
2022-08-08T20:44:27.494Z,35.64
2022-08-08T20:46:54.078Z,35.72
2022-08-08T20:49:21.928Z,35.63
2022-08-08T20:51:48.562Z,35.20
2022-08-08T20:54:26.365Z,35.82
2022-08-08T20:57:17.026Z,35.92
2022-08-08T20:59:41.832Z,36.75
2022-08-08T21:02:12.448Z,35.88
2022-08-08T21:04:40.513Z,35.96
2022-08-08T21:07:16.148Z,35.66
2022-08-08T21:09:48.768Z,35.55
2022-08-08T21:12:32.424Z,35.86
2022-08-08T21:15:06.610Z,36.45
2022-08-08T21:17:35.054Z,35.85
2022-08-08T21:20:03.774Z,36.35
2022-08-08T21:22:30.536Z,35.63
2022-08-08T21:24:58.376Z,35.38
2022-08-08T21:27:38.622Z,36.26
2022-08-08T21:30:16.380Z,35.78
2022-08-08T21:32:52.067Z,36.36
2022-08-08T21:36:18.455Z,35.90
2022-08-08T21:38:16.130Z,36.38
2022-08-08T21:40:54.747Z,36.47
2022-08-08T21:43:23.728Z,36.92
2022-08-08T21:48:06.186Z,37.35
2022-08-08T21:48:44.780Z,37.49
2022-08-08T21:51:16.167Z,36.80
2022-08-08T21:54:32.112Z,36.53
2022-08-08T21:56:49.924Z,35.96
2022-08-08T21:59:16.712Z,36.38
2022-08-08T22:01:52.327Z,35.94
2022-08-08T22:04:22.582Z,36.65
2022-08-08T22:06:51.468Z,37.18
2022-08-08T22:09:19.121Z,36.87
2022-08-08T22:11:59.538Z,37.64
2022-08-08T22:14:31.516Z,37.22
2022-08-08T22:17:01.110Z,37.05
2022-08-08T22:19:29.892Z,36.72
2022-08-08T22:22:16.441Z,37.59
2022-08-08T22:24:44.524Z,37.28
2022-08-08T22:27:11.354Z,36.88
2022-08-08T22:29:59.055Z,37.49
2022-08-08T22:32:28.584Z,37.83
2022-08-08T22:34:55.201Z,37.62
2022-08-08T22:37:49.455Z,37.32
2022-08-08T22:40:11.884Z,36.98
2022-08-08T22:42:47.384Z,37.77
2022-08-08T22:45:15.512Z,37.55
2022-08-08T22:47:47.045Z,37.92
2022-08-08T22:50:27.084Z,37.90
2022-08-08T22:54:32.897Z,37.51
2022-08-08T22:55:58.785Z,38.02
2022-08-08T22:58:33.166Z,37.54
2022-08-08T23:02:01.607Z,38.05
2022-08-08T23:03:56.204Z,37.82
2022-08-08T23:06:27.211Z,37.62
2022-08-08T23:08:58.559Z,38.49
2022-08-08T23:11:40.407Z,37.97
2022-08-08T23:14:19.217Z,37.93
2022-08-08T23:16:54.508Z,37.69
2022-08-08T23:19:32.422Z,37.81
2022-08-08T23:22:01.562Z,37.74
2022-08-08T23:24:28.251Z,37.97
2022-08-08T23:27:04.566Z,38.47
2022-08-08T23:29:31.420Z,39.13
2022-08-08T23:31:58.292Z,38.38
2022-08-08T23:34:25.339Z,38.27
2022-08-08T23:36:58.074Z,39.20
2022-08-08T23:39:32.380Z,39.46
2022-08-08T23:42:09.098Z,39.52
2022-08-08T23:44:39.492Z,39.30
2022-08-08T23:49:04.028Z,39.58
2022-08-08T23:50:03.151Z,38.79
2022-08-08T23:52:32.123Z,39.51
2022-08-08T23:55:00.282Z,39.62
2022-08-08T23:57:52.820Z,39.21
